sensor_id;sensor_type;location;lat;lon;timestamp;temperature;humidity
68485;DHT22;55472;50.060;21.960;2024-01-30T00:02:14;0.00;85.90
68485;DHT22;55472;50.060;21.960;2024-01-30T00:04:40;0.00;86.00
68485;DHT22;55472;50.060;21.960;2024-01-30T00:07:06;0.00;85.90
68485;DHT22;55472;50.060;21.960;2024-01-30T00:09:33;0.00;85.90
68485;DHT22;55472;50.060;21.960;2024-01-30T00:11:59;0.00;85.90
68485;DHT22;55472;50.060;21.960;2024-01-30T00:14:26;0.00;85.70
68485;DHT22;55472;50.060;21.960;2024-01-30T00:16:52;0.00;85.70
68485;DHT22;55472;50.060;21.960;2024-01-30T00:19:18;0.00;85.80
68485;DHT22;55472;50.060;21.960;2024-01-30T00:21:44;0.00;85.80
68485;DHT22;55472;50.060;21.960;2024-01-30T00:24:10;0.10;85.50
68485;DHT22;55472;50.060;21.960;2024-01-30T00:26:36;0.10;85.50
68485;DHT22;55472;50.060;21.960;2024-01-30T00:29:02;0.10;85.50
68485;DHT22;55472;50.060;21.960;2024-01-30T00:31:29;0.00;85.40
68485;DHT22;55472;50.060;21.960;2024-01-30T00:33:55;0.10;85.40
68485;DHT22;55472;50.060;21.960;2024-01-30T00:36:21;0.10;85.30
68485;DHT22;55472;50.060;21.960;2024-01-30T00:38:47;0.10;85.30
68485;DHT22;55472;50.060;21.960;2024-01-30T00:41:14;0.10;85.10
68485;DHT22;55472;50.060;21.960;2024-01-30T00:43:40;0.10;85.20
68485;DHT22;55472;50.060;21.960;2024-01-30T00:46:06;0.10;85.10
68485;DHT22;55472;50.060;21.960;2024-01-30T00:48:32;0.10;85.00
68485;DHT22;55472;50.060;21.960;2024-01-30T00:50:58;0.10;84.90
68485;DHT22;55472;50.060;21.960;2024-01-30T00:53:25;0.10;85.00
68485;DHT22;55472;50.060;21.960;2024-01-30T00:55:51;0.00;85.00
68485;DHT22;55472;50.060;21.960;2024-01-30T00:58:18;0.00;85.20
68485;DHT22;55472;50.060;21.960;2024-01-30T01:00:45;0.00;85.20
68485;DHT22;55472;50.060;21.960;2024-01-30T01:03:11;0.10;84.80
68485;DHT22;55472;50.060;21.960;2024-01-30T01:05:37;0.10;84.70
68485;DHT22;55472;50.060;21.960;2024-01-30T01:08:03;0.10;84.80
68485;DHT22;55472;50.060;21.960;2024-01-30T01:10:30;0.00;85.00
68485;DHT22;55472;50.060;21.960;2024-01-30T01:12:56;0.00;85.00
68485;DHT22;55472;50.060;21.960;2024-01-30T01:15:22;0.00;85.30
68485;DHT22;55472;50.060;21.960;2024-01-30T01:17:48;-0.10;85.40
68485;DHT22;55472;50.060;21.960;2024-01-30T01:20:14;-0.10;85.80
68485;DHT22;55472;50.060;21.960;2024-01-30T01:22:40;-0.10;85.80
68485;DHT22;55472;50.060;21.960;2024-01-30T01:25:08;-0.10;85.60
68485;DHT22;55472;50.060;21.960;2024-01-30T01:27:36;-0.10;85.70
68485;DHT22;55472;50.060;21.960;2024-01-30T01:30:08;-0.10;85.30
68485;DHT22;55472;50.060;21.960;2024-01-30T01:32:36;-0.10;85.50
68485;DHT22;55472;50.060;21.960;2024-01-30T01:35:02;-0.10;85.80
68485;DHT22;55472;50.060;21.960;2024-01-30T01:37:31;0.00;85.40
68485;DHT22;55472;50.060;21.960;2024-01-30T01:39:57;0.00;85.20
68485;DHT22;55472;50.060;21.960;2024-01-30T01:42:23;0.00;85.30
68485;DHT22;55472;50.060;21.960;2024-01-30T01:44:49;0.10;85.00
68485;DHT22;55472;50.060;21.960;2024-01-30T01:47:16;0.10;84.90
68485;DHT22;55472;50.060;21.960;2024-01-30T01:49:42;0.10;84.90
68485;DHT22;55472;50.060;21.960;2024-01-30T01:52:09;0.20;84.80
68485;DHT22;55472;50.060;21.960;2024-01-30T01:54:35;0.20;84.80
68485;DHT22;55472;50.060;21.960;2024-01-30T01:57:03;0.20;84.80
68485;DHT22;55472;50.060;21.960;2024-01-30T01:59:29;0.20;84.50
68485;DHT22;55472;50.060;21.960;2024-01-30T02:01:56;0.20;84.70
68485;DHT22;55472;50.060;21.960;2024-01-30T02:04:22;0.30;84.40
68485;DHT22;55472;50.060;21.960;2024-01-30T02:06:48;0.30;84.40
68485;DHT22;55472;50.060;21.960;2024-01-30T02:09:15;0.30;84.60
68485;DHT22;55472;50.060;21.960;2024-01-30T02:11:41;0.30;84.70
68485;DHT22;55472;50.060;21.960;2024-01-30T02:14:08;0.30;84.60
68485;DHT22;55472;50.060;21.960;2024-01-30T02:16:34;0.20;84.70
68485;DHT22;55472;50.060;21.960;2024-01-30T02:19:00;0.20;84.70
68485;DHT22;55472;50.060;21.960;2024-01-30T02:21:26;0.20;84.80
68485;DHT22;55472;50.060;21.960;2024-01-30T02:23:52;0.20;84.70
68485;DHT22;55472;50.060;21.960;2024-01-30T02:26:21;0.20;84.90
68485;DHT22;55472;50.060;21.960;2024-01-30T02:28:47;0.20;85.00
68485;DHT22;55472;50.060;21.960;2024-01-30T02:31:13;0.20;85.30
68485;DHT22;55472;50.060;21.960;2024-01-30T02:33:39;0.20;85.10
68485;DHT22;55472;50.060;21.960;2024-01-30T02:36:05;0.10;85.20
68485;DHT22;55472;50.060;21.960;2024-01-30T02:38:31;0.10;85.20
68485;DHT22;55472;50.060;21.960;2024-01-30T02:40:57;0.20;85.00
68485;DHT22;55472;50.060;21.960;2024-01-30T02:43:23;0.20;84.90
68485;DHT22;55472;50.060;21.960;2024-01-30T02:45:50;0.20;84.90
68485;DHT22;55472;50.060;21.960;2024-01-30T02:48:16;0.20;84.80
68485;DHT22;55472;50.060;21.960;2024-01-30T02:50:42;0.20;84.60
68485;DHT22;55472;50.060;21.960;2024-01-30T02:53:08;0.30;84.50
68485;DHT22;55472;50.060;21.960;2024-01-30T02:55:35;0.30;84.30
68485;DHT22;55472;50.060;21.960;2024-01-30T02:58:01;0.30;84.40
68485;DHT22;55472;50.060;21.960;2024-01-30T03:00:27;0.30;84.30
68485;DHT22;55472;50.060;21.960;2024-01-30T03:02:53;0.20;84.50
68485;DHT22;55472;50.060;21.960;2024-01-30T03:05:20;0.20;84.70
68485;DHT22;55472;50.060;21.960;2024-01-30T03:07:46;0.20;84.70
68485;DHT22;55472;50.060;21.960;2024-01-30T03:10:12;0.20;84.90
68485;DHT22;55472;50.060;21.960;2024-01-30T03:12:38;0.20;84.90
68485;DHT22;55472;50.060;21.960;2024-01-30T03:15:05;0.20;85.20
68485;DHT22;55472;50.060;21.960;2024-01-30T03:17:31;0.20;85.20
68485;DHT22;55472;50.060;21.960;2024-01-30T03:19:58;0.10;85.40
68485;DHT22;55472;50.060;21.960;2024-01-30T03:22:24;0.20;85.60
68485;DHT22;55472;50.060;21.960;2024-01-30T03:24:50;0.20;85.50
68485;DHT22;55472;50.060;21.960;2024-01-30T03:27:16;0.10;85.50
68485;DHT22;55472;50.060;21.960;2024-01-30T03:29:42;0.10;85.70
68485;DHT22;55472;50.060;21.960;2024-01-30T03:32:08;0.10;86.00
68485;DHT22;55472;50.060;21.960;2024-01-30T03:34:34;0.10;86.10
68485;DHT22;55472;50.060;21.960;2024-01-30T03:37:00;0.10;86.00
68485;DHT22;55472;50.060;21.960;2024-01-30T03:39:27;0.10;86.10
68485;DHT22;55472;50.060;21.960;2024-01-30T03:41:53;0.10;86.20
68485;DHT22;55472;50.060;21.960;2024-01-30T03:44:19;0.10;86.30
68485;DHT22;55472;50.060;21.960;2024-01-30T03:46:46;0.20;86.30
68485;DHT22;55472;50.060;21.960;2024-01-30T03:49:12;0.20;86.00
68485;DHT22;55472;50.060;21.960;2024-01-30T03:51:38;0.20;86.10
68485;DHT22;55472;50.060;21.960;2024-01-30T03:54:04;0.20;86.20
68485;DHT22;55472;50.060;21.960;2024-01-30T03:56:30;0.20;86.30
68485;DHT22;55472;50.060;21.960;2024-01-30T03:58:57;0.20;86.20
68485;DHT22;55472;50.060;21.960;2024-01-30T04:01:24;0.20;86.30
68485;DHT22;55472;50.060;21.960;2024-01-30T04:03:51;0.20;86.30
68485;DHT22;55472;50.060;21.960;2024-01-30T04:06:17;0.20;86.60
68485;DHT22;55472;50.060;21.960;2024-01-30T04:08:43;0.10;86.70
68485;DHT22;55472;50.060;21.960;2024-01-30T04:11:09;0.10;86.70
68485;DHT22;55472;50.060;21.960;2024-01-30T04:13:35;0.10;87.00
68485;DHT22;55472;50.060;21.960;2024-01-30T04:16:02;0.10;87.10
68485;DHT22;55472;50.060;21.960;2024-01-30T04:18:29;0.00;87.40
68485;DHT22;55472;50.060;21.960;2024-01-30T04:20:55;0.00;87.50
68485;DHT22;55472;50.060;21.960;2024-01-30T04:23:22;0.00;87.70
68485;DHT22;55472;50.060;21.960;2024-01-30T04:25:48;0.00;87.90
68485;DHT22;55472;50.060;21.960;2024-01-30T04:28:14;0.00;87.90
68485;DHT22;55472;50.060;21.960;2024-01-30T04:30:40;0.00;88.10
68485;DHT22;55472;50.060;21.960;2024-01-30T04:33:06;0.00;88.10
68485;DHT22;55472;50.060;21.960;2024-01-30T04:35:32;-0.10;88.30
68485;DHT22;55472;50.060;21.960;2024-01-30T04:37:59;-0.10;88.50
68485;DHT22;55472;50.060;21.960;2024-01-30T04:40:25;-0.10;88.60
68485;DHT22;55472;50.060;21.960;2024-01-30T04:42:51;-0.10;88.80
68485;DHT22;55472;50.060;21.960;2024-01-30T04:45:17;-0.10;88.70
68485;DHT22;55472;50.060;21.960;2024-01-30T04:47:43;-0.10;88.90
68485;DHT22;55472;50.060;21.960;2024-01-30T04:50:09;-0.10;89.00
68485;DHT22;55472;50.060;21.960;2024-01-30T04:52:35;-0.10;89.00
68485;DHT22;55472;50.060;21.960;2024-01-30T04:55:02;-0.10;89.00
68485;DHT22;55472;50.060;21.960;2024-01-30T04:57:28;-0.20;89.10
68485;DHT22;55472;50.060;21.960;2024-01-30T04:59:54;-0.20;89.50
68485;DHT22;55472;50.060;21.960;2024-01-30T05:02:20;-0.20;89.50
68485;DHT22;55472;50.060;21.960;2024-01-30T05:04:46;-0.20;89.50
68485;DHT22;55472;50.060;21.960;2024-01-30T05:07:12;-0.20;89.40
68485;DHT22;55472;50.060;21.960;2024-01-30T05:09:39;-0.20;89.30
68485;DHT22;55472;50.060;21.960;2024-01-30T05:12:05;-0.20;89.30
68485;DHT22;55472;50.060;21.960;2024-01-30T05:14:31;-0.20;89.30
68485;DHT22;55472;50.060;21.960;2024-01-30T05:16:57;-0.10;89.30
68485;DHT22;55472;50.060;21.960;2024-01-30T05:19:23;-0.20;89.30
68485;DHT22;55472;50.060;21.960;2024-01-30T05:21:49;-0.20;89.40
68485;DHT22;55472;50.060;21.960;2024-01-30T05:24:16;-0.20;89.40
68485;DHT22;55472;50.060;21.960;2024-01-30T05:26:42;-0.20;89.20
68485;DHT22;55472;50.060;21.960;2024-01-30T05:29:08;-0.20;89.20
68485;DHT22;55472;50.060;21.960;2024-01-30T05:31:34;-0.20;89.20
68485;DHT22;55472;50.060;21.960;2024-01-30T05:34:01;-0.20;88.80
68485;DHT22;55472;50.060;21.960;2024-01-30T05:36:27;-0.20;88.70
68485;DHT22;55472;50.060;21.960;2024-01-30T05:38:53;-0.20;88.80
68485;DHT22;55472;50.060;21.960;2024-01-30T05:41:20;-0.20;88.60
68485;DHT22;55472;50.060;21.960;2024-01-30T05:43:46;-0.20;88.60
68485;DHT22;55472;50.060;21.960;2024-01-30T05:46:13;-0.20;88.40
68485;DHT22;55472;50.060;21.960;2024-01-30T05:48:39;-0.20;88.20
68485;DHT22;55472;50.060;21.960;2024-01-30T05:51:07;-0.20;87.80
68485;DHT22;55472;50.060;21.960;2024-01-30T05:53:34;-0.20;87.70
68485;DHT22;55472;50.060;21.960;2024-01-30T05:56:04;-0.20;87.50
68485;DHT22;55472;50.060;21.960;2024-01-30T05:58:30;-0.20;87.10
68485;DHT22;55472;50.060;21.960;2024-01-30T06:00:57;-0.20;87.30
68485;DHT22;55472;50.060;21.960;2024-01-30T06:03:23;-0.20;87.20
68485;DHT22;55472;50.060;21.960;2024-01-30T06:05:50;-0.10;86.60
68485;DHT22;55472;50.060;21.960;2024-01-30T06:08:17;-0.10;86.30
68485;DHT22;55472;50.060;21.960;2024-01-30T06:10:43;-0.10;86.20
68485;DHT22;55472;50.060;21.960;2024-01-30T06:13:09;-0.10;86.10
68485;DHT22;55472;50.060;21.960;2024-01-30T06:15:35;-0.10;85.90
68485;DHT22;55472;50.060;21.960;2024-01-30T06:18:01;-0.10;85.70
68485;DHT22;55472;50.060;21.960;2024-01-30T06:20:29;-0.10;85.50
68485;DHT22;55472;50.060;21.960;2024-01-30T06:22:55;0.00;85.20
68485;DHT22;55472;50.060;21.960;2024-01-30T06:25:21;0.00;84.90
68485;DHT22;55472;50.060;21.960;2024-01-30T06:27:50;0.10;84.70
68485;DHT22;55472;50.060;21.960;2024-01-30T06:30:16;0.10;84.60
68485;DHT22;55472;50.060;21.960;2024-01-30T06:32:42;0.20;84.10
68485;DHT22;55472;50.060;21.960;2024-01-30T06:35:08;0.20;84.00
68485;DHT22;55472;50.060;21.960;2024-01-30T06:37:36;0.20;84.00
68485;DHT22;55472;50.060;21.960;2024-01-30T06:40:03;0.20;83.80
68485;DHT22;55472;50.060;21.960;2024-01-30T06:42:31;0.30;83.40
68485;DHT22;55472;50.060;21.960;2024-01-30T06:44:57;0.40;83.00
68485;DHT22;55472;50.060;21.960;2024-01-30T06:47:23;0.40;83.10
68485;DHT22;55472;50.060;21.960;2024-01-30T06:49:49;0.40;83.00
68485;DHT22;55472;50.060;21.960;2024-01-30T06:52:15;0.40;82.40
68485;DHT22;55472;50.060;21.960;2024-01-30T06:54:41;0.50;82.30
68485;DHT22;55472;50.060;21.960;2024-01-30T06:57:07;0.60;81.90
68485;DHT22;55472;50.060;21.960;2024-01-30T06:59:37;0.60;81.70
68485;DHT22;55472;50.060;21.960;2024-01-30T07:02:09;0.70;81.80
68485;DHT22;55472;50.060;21.960;2024-01-30T07:04:36;0.70;81.00
68485;DHT22;55472;50.060;21.960;2024-01-30T07:07:03;0.80;81.00
68485;DHT22;55472;50.060;21.960;2024-01-30T07:09:31;0.90;80.20
68485;DHT22;55472;50.060;21.960;2024-01-30T07:11:57;1.00;79.80
68485;DHT22;55472;50.060;21.960;2024-01-30T07:14:26;1.10;79.40
68485;DHT22;55472;50.060;21.960;2024-01-30T07:16:52;1.20;79.00
68485;DHT22;55472;50.060;21.960;2024-01-30T07:19:18;1.20;78.80
68485;DHT22;55472;50.060;21.960;2024-01-30T07:21:44;1.40;77.80
68485;DHT22;55472;50.060;21.960;2024-01-30T07:24:10;1.50;77.80
68485;DHT22;55472;50.060;21.960;2024-01-30T07:26:36;1.60;76.90
68485;DHT22;55472;50.060;21.960;2024-01-30T07:29:03;1.80;76.30
68485;DHT22;55472;50.060;21.960;2024-01-30T07:31:29;2.00;75.80
68485;DHT22;55472;50.060;21.960;2024-01-30T07:33:55;2.20;75.10
68485;DHT22;55472;50.060;21.960;2024-01-30T07:36:21;2.40;74.00
68485;DHT22;55472;50.060;21.960;2024-01-30T07:38:47;2.60;73.00
68485;DHT22;55472;50.060;21.960;2024-01-30T07:41:13;2.80;72.30
68485;DHT22;55472;50.060;21.960;2024-01-30T07:43:39;3.00;71.50
68485;DHT22;55472;50.060;21.960;2024-01-30T07:46:05;3.20;70.70
68485;DHT22;55472;50.060;21.960;2024-01-30T07:48:33;3.40;70.00
68485;DHT22;55472;50.060;21.960;2024-01-30T07:50:59;3.60;69.40
68485;DHT22;55472;50.060;21.960;2024-01-30T07:53:26;3.70;69.10
68485;DHT22;55472;50.060;21.960;2024-01-30T07:55:52;3.90;68.00
68485;DHT22;55472;50.060;21.960;2024-01-30T07:58:18;4.20;66.90
68485;DHT22;55472;50.060;21.960;2024-01-30T08:00:45;4.60;65.70
68485;DHT22;55472;50.060;21.960;2024-01-30T08:03:11;5.10;64.10
68485;DHT22;55472;50.060;21.960;2024-01-30T08:05:38;6.00;62.10
68485;DHT22;55472;50.060;21.960;2024-01-30T08:08:05;7.30;58.80
68485;DHT22;55472;50.060;21.960;2024-01-30T08:10:31;8.70;55.30
68485;DHT22;55472;50.060;21.960;2024-01-30T08:12:57;10.20;52.20
68485;DHT22;55472;50.060;21.960;2024-01-30T08:15:23;11.60;48.90
68485;DHT22;55472;50.060;21.960;2024-01-30T08:17:49;12.50;46.20
68485;DHT22;55472;50.060;21.960;2024-01-30T08:20:21;13.50;44.00
68485;DHT22;55472;50.060;21.960;2024-01-30T08:22:47;14.30;42.50
68485;DHT22;55472;50.060;21.960;2024-01-30T08:25:13;15.00;41.30
68485;DHT22;55472;50.060;21.960;2024-01-30T08:27:40;15.40;40.00
68485;DHT22;55472;50.060;21.960;2024-01-30T08:30:07;16.00;38.90
68485;DHT22;55472;50.060;21.960;2024-01-30T08:32:33;16.70;38.20
68485;DHT22;55472;50.060;21.960;2024-01-30T08:34:59;17.40;37.60
68485;DHT22;55472;50.060;21.960;2024-01-30T08:37:29;17.80;36.60
68485;DHT22;55472;50.060;21.960;2024-01-30T08:39:55;18.30;35.70
68485;DHT22;55472;50.060;21.960;2024-01-30T08:42:22;18.50;35.30
68485;DHT22;55472;50.060;21.960;2024-01-30T08:44:51;18.70;35.20
68485;DHT22;55472;50.060;21.960;2024-01-30T08:47:19;19.10;34.20
68485;DHT22;55472;50.060;21.960;2024-01-30T08:49:45;19.10;34.20
68485;DHT22;55472;50.060;21.960;2024-01-30T08:52:11;19.40;33.50
68485;DHT22;55472;50.060;21.960;2024-01-30T08:54:37;19.20;33.90
68485;DHT22;55472;50.060;21.960;2024-01-30T08:57:04;19.20;33.40
68485;DHT22;55472;50.060;21.960;2024-01-30T08:59:30;19.60;33.30
68485;DHT22;55472;50.060;21.960;2024-01-30T09:01:56;19.80;33.00
68485;DHT22;55472;50.060;21.960;2024-01-30T09:04:24;20.00;33.30
68485;DHT22;55472;50.060;21.960;2024-01-30T09:06:55;19.80;32.70
68485;DHT22;55472;50.060;21.960;2024-01-30T09:09:21;19.80;33.10
68485;DHT22;55472;50.060;21.960;2024-01-30T09:11:48;20.60;32.70
68485;DHT22;55472;50.060;21.960;2024-01-30T09:14:14;20.60;32.10
68485;DHT22;55472;50.060;21.960;2024-01-30T09:16:40;20.50;32.60
68485;DHT22;55472;50.060;21.960;2024-01-30T09:19:06;19.60;32.80
68485;DHT22;55472;50.060;21.960;2024-01-30T09:21:32;17.50;34.40
68485;DHT22;55472;50.060;21.960;2024-01-30T09:24:05;15.00;37.50
68485;DHT22;55472;50.060;21.960;2024-01-30T09:26:32;13.20;40.10
68485;DHT22;55472;50.060;21.960;2024-01-30T09:28:57;12.00;42.10
68485;DHT22;55472;50.060;21.960;2024-01-30T09:31:24;11.00;43.90
68485;DHT22;55472;50.060;21.960;2024-01-30T09:33:50;10.30;45.00
68485;DHT22;55472;50.060;21.960;2024-01-30T09:36:17;9.60;46.90
68485;DHT22;55472;50.060;21.960;2024-01-30T09:38:45;9.30;48.40
68485;DHT22;55472;50.060;21.960;2024-01-30T09:41:11;8.90;48.60
68485;DHT22;55472;50.060;21.960;2024-01-30T09:43:38;9.20;48.60
68485;DHT22;55472;50.060;21.960;2024-01-30T09:46:11;10.90;46.20
68485;DHT22;55472;50.060;21.960;2024-01-30T09:48:41;13.10;42.80
68485;DHT22;55472;50.060;21.960;2024-01-30T09:51:09;14.70;39.30
68485;DHT22;55472;50.060;21.960;2024-01-30T09:53:37;15.80;38.00
68485;DHT22;55472;50.060;21.960;2024-01-30T09:56:04;16.30;37.50
68485;DHT22;55472;50.060;21.960;2024-01-30T09:58:31;16.10;37.50
68485;DHT22;55472;50.060;21.960;2024-01-30T10:00:57;15.10;38.40
68485;DHT22;55472;50.060;21.960;2024-01-30T10:03:23;13.90;39.70
68485;DHT22;55472;50.060;21.960;2024-01-30T10:05:53;12.80;42.10
68485;DHT22;55472;50.060;21.960;2024-01-30T10:08:21;12.00;43.30
68485;DHT22;55472;50.060;21.960;2024-01-30T10:10:47;11.30;44.40
68485;DHT22;55472;50.060;21.960;2024-01-30T10:13:15;10.60;46.40
68485;DHT22;55472;50.060;21.960;2024-01-30T10:15:42;10.10;47.80
68485;DHT22;55472;50.060;21.960;2024-01-30T10:18:09;9.70;48.10
68485;DHT22;55472;50.060;21.960;2024-01-30T10:20:37;9.50;49.20
68485;DHT22;55472;50.060;21.960;2024-01-30T10:23:03;9.70;48.40
68485;DHT22;55472;50.060;21.960;2024-01-30T10:25:31;9.60;48.50
68485;DHT22;55472;50.060;21.960;2024-01-30T10:27:59;9.10;49.40
68485;DHT22;55472;50.060;21.960;2024-01-30T10:30:26;8.70;51.00
68485;DHT22;55472;50.060;21.960;2024-01-30T10:32:53;8.50;51.70
68485;DHT22;55472;50.060;21.960;2024-01-30T10:35:19;9.10;51.30
68485;DHT22;55472;50.060;21.960;2024-01-30T10:37:48;9.20;51.20
68485;DHT22;55472;50.060;21.960;2024-01-30T10:40:16;9.50;50.10
68485;DHT22;55472;50.060;21.960;2024-01-30T10:42:45;9.80;49.90
68485;DHT22;55472;50.060;21.960;2024-01-30T10:45:13;10.10;49.40
68485;DHT22;55472;50.060;21.960;2024-01-30T10:47:48;10.20;48.30
68485;DHT22;55472;50.060;21.960;2024-01-30T10:50:16;10.10;49.40
68485;DHT22;55472;50.060;21.960;2024-01-30T10:52:42;10.20;49.50
68485;DHT22;55472;50.060;21.960;2024-01-30T10:55:10;10.40;48.10
68485;DHT22;55472;50.060;21.960;2024-01-30T10:57:37;10.50;46.70
68485;DHT22;55472;50.060;21.960;2024-01-30T11:00:08;10.50;47.30
68485;DHT22;55472;50.060;21.960;2024-01-30T11:02:44;10.50;46.90
68485;DHT22;55472;50.060;21.960;2024-01-30T11:05:12;10.40;47.30
68485;DHT22;55472;50.060;21.960;2024-01-30T11:07:39;10.40;47.30
68485;DHT22;55472;50.060;21.960;2024-01-30T11:10:07;10.40;47.30
68485;DHT22;55472;50.060;21.960;2024-01-30T11:12:39;10.30;46.70
68485;DHT22;55472;50.060;21.960;2024-01-30T11:15:14;10.00;46.70
68485;DHT22;55472;50.060;21.960;2024-01-30T11:17:53;9.70;48.00
68485;DHT22;55472;50.060;21.960;2024-01-30T11:20:26;9.60;48.70
68485;DHT22;55472;50.060;21.960;2024-01-30T11:22:55;9.50;48.80
68485;DHT22;55472;50.060;21.960;2024-01-30T11:25:23;9.30;49.50
68485;DHT22;55472;50.060;21.960;2024-01-30T11:27:52;9.20;49.50
68485;DHT22;55472;50.060;21.960;2024-01-30T11:30:26;9.10;49.80
68485;DHT22;55472;50.060;21.960;2024-01-30T11:35:38;9.20;50.20
68485;DHT22;55472;50.060;21.960;2024-01-30T11:38:09;9.20;50.00
68485;DHT22;55472;50.060;21.960;2024-01-30T11:40:38;9.20;50.70
68485;DHT22;55472;50.060;21.960;2024-01-30T11:43:06;9.20;50.10
68485;DHT22;55472;50.060;21.960;2024-01-30T11:45:34;9.30;50.20
68485;DHT22;55472;50.060;21.960;2024-01-30T11:48:01;9.40;49.30
68485;DHT22;55472;50.060;21.960;2024-01-30T11:50:35;9.50;48.90
68485;DHT22;55472;50.060;21.960;2024-01-30T11:53:04;9.40;49.20
68485;DHT22;55472;50.060;21.960;2024-01-30T11:55:31;9.30;49.40
68485;DHT22;55472;50.060;21.960;2024-01-30T11:57:58;9.20;49.30
68485;DHT22;55472;50.060;21.960;2024-01-30T12:00:24;9.10;50.40
68485;DHT22;55472;50.060;21.960;2024-01-30T12:02:52;9.10;50.00
68485;DHT22;55472;50.060;21.960;2024-01-30T12:05:22;9.20;49.70
68485;DHT22;55472;50.060;21.960;2024-01-30T12:07:49;9.20;49.40
68485;DHT22;55472;50.060;21.960;2024-01-30T12:10:16;9.10;49.70
68485;DHT22;55472;50.060;21.960;2024-01-30T12:12:47;9.10;49.70
68485;DHT22;55472;50.060;21.960;2024-01-30T12:15:16;9.10;50.20
68485;DHT22;55472;50.060;21.960;2024-01-30T12:17:44;9.20;50.70
68485;DHT22;55472;50.060;21.960;2024-01-30T12:20:11;9.40;49.80
68485;DHT22;55472;50.060;21.960;2024-01-30T12:22:40;9.50;48.80
68485;DHT22;55472;50.060;21.960;2024-01-30T12:25:15;9.50;49.70
68485;DHT22;55472;50.060;21.960;2024-01-30T12:27:44;9.50;49.60
68485;DHT22;55472;50.060;21.960;2024-01-30T12:30:13;9.50;49.80
68485;DHT22;55472;50.060;21.960;2024-01-30T12:32:45;9.60;49.60
68485;DHT22;55472;50.060;21.960;2024-01-30T12:35:13;9.40;49.80
68485;DHT22;55472;50.060;21.960;2024-01-30T12:37:43;9.30;50.00
68485;DHT22;55472;50.060;21.960;2024-01-30T12:40:11;9.30;49.90
68485;DHT22;55472;50.060;21.960;2024-01-30T12:42:39;9.30;49.80
68485;DHT22;55472;50.060;21.960;2024-01-30T12:45:05;9.40;49.80
68485;DHT22;55472;50.060;21.960;2024-01-30T12:47:32;9.50;49.60
68485;DHT22;55472;50.060;21.960;2024-01-30T12:49:58;9.50;49.50
68485;DHT22;55472;50.060;21.960;2024-01-30T12:52:25;9.30;50.40
68485;DHT22;55472;50.060;21.960;2024-01-30T12:54:52;9.20;50.70
68485;DHT22;55472;50.060;21.960;2024-01-30T12:57:18;9.10;50.80
68485;DHT22;55472;50.060;21.960;2024-01-30T12:59:45;9.10;50.60
68485;DHT22;55472;50.060;21.960;2024-01-30T13:02:15;9.20;50.70
68485;DHT22;55472;50.060;21.960;2024-01-30T13:04:42;9.30;51.50
68485;DHT22;55472;50.060;21.960;2024-01-30T13:07:08;9.40;51.00
68485;DHT22;55472;50.060;21.960;2024-01-30T13:09:35;9.50;50.10
68485;DHT22;55472;50.060;21.960;2024-01-30T13:12:02;9.50;49.80
68485;DHT22;55472;50.060;21.960;2024-01-30T13:14:28;9.50;50.10
68485;DHT22;55472;50.060;21.960;2024-01-30T13:16:54;9.50;51.00
68485;DHT22;55472;50.060;21.960;2024-01-30T13:19:21;9.40;50.70
68485;DHT22;55472;50.060;21.960;2024-01-30T13:21:47;9.40;50.70
68485;DHT22;55472;50.060;21.960;2024-01-30T13:24:14;9.30;50.00
68485;DHT22;55472;50.060;21.960;2024-01-30T13:26:40;9.10;50.90
68485;DHT22;55472;50.060;21.960;2024-01-30T13:29:08;9.10;50.90
68485;DHT22;55472;50.060;21.960;2024-01-30T13:31:34;9.10;51.20
68485;DHT22;55472;50.060;21.960;2024-01-30T13:34:01;9.20;51.00
68485;DHT22;55472;50.060;21.960;2024-01-30T13:36:27;9.20;51.00
68485;DHT22;55472;50.060;21.960;2024-01-30T13:38:53;9.30;50.70
68485;DHT22;55472;50.060;21.960;2024-01-30T13:41:19;9.10;51.10
68485;DHT22;55472;50.060;21.960;2024-01-30T13:43:47;9.10;51.40
68485;DHT22;55472;50.060;21.960;2024-01-30T13:46:13;9.10;51.40
68485;DHT22;55472;50.060;21.960;2024-01-30T13:48:39;9.00;51.50
68485;DHT22;55472;50.060;21.960;2024-01-30T13:51:05;8.90;51.90
68485;DHT22;55472;50.060;21.960;2024-01-30T13:53:32;8.90;52.00
68485;DHT22;55472;50.060;21.960;2024-01-30T13:55:58;8.80;52.60
68485;DHT22;55472;50.060;21.960;2024-01-30T13:58:24;8.80;52.70
68485;DHT22;55472;50.060;21.960;2024-01-30T14:00:50;8.70;52.40
68485;DHT22;55472;50.060;21.960;2024-01-30T14:03:16;8.60;53.10
68485;DHT22;55472;50.060;21.960;2024-01-30T14:05:42;8.40;53.40
68485;DHT22;55472;50.060;21.960;2024-01-30T14:08:10;8.40;53.60
68485;DHT22;55472;50.060;21.960;2024-01-30T14:10:36;8.30;54.00
68485;DHT22;55472;50.060;21.960;2024-01-30T14:13:02;8.30;53.80
68485;DHT22;55472;50.060;21.960;2024-01-30T14:15:28;8.20;53.90
68485;DHT22;55472;50.060;21.960;2024-01-30T14:17:55;8.20;53.80
68485;DHT22;55472;50.060;21.960;2024-01-30T14:20:21;8.10;54.30
68485;DHT22;55472;50.060;21.960;2024-01-30T14:22:47;8.00;54.30
68485;DHT22;55472;50.060;21.960;2024-01-30T14:25:13;8.00;54.10
68485;DHT22;55472;50.060;21.960;2024-01-30T14:27:39;7.80;54.90
68485;DHT22;55472;50.060;21.960;2024-01-30T14:30:06;7.60;54.90
68485;DHT22;55472;50.060;21.960;2024-01-30T14:32:33;7.40;55.60
68485;DHT22;55472;50.060;21.960;2024-01-30T14:35:00;7.20;56.40
68485;DHT22;55472;50.060;21.960;2024-01-30T14:37:27;7.10;56.70
68485;DHT22;55472;50.060;21.960;2024-01-30T14:39:55;7.00;57.10
68485;DHT22;55472;50.060;21.960;2024-01-30T14:42:22;6.90;57.60
68485;DHT22;55472;50.060;21.960;2024-01-30T14:44:48;6.90;57.60
68485;DHT22;55472;50.060;21.960;2024-01-30T14:47:15;6.90;58.00
68485;DHT22;55472;50.060;21.960;2024-01-30T14:49:41;6.90;58.10
68485;DHT22;55472;50.060;21.960;2024-01-30T14:52:07;6.70;58.40
68485;DHT22;55472;50.060;21.960;2024-01-30T14:54:36;6.60;58.90
68485;DHT22;55472;50.060;21.960;2024-01-30T14:57:02;6.40;59.40
68485;DHT22;55472;50.060;21.960;2024-01-30T14:59:29;6.20;60.10
68485;DHT22;55472;50.060;21.960;2024-01-30T15:01:56;6.00;61.20
68485;DHT22;55472;50.060;21.960;2024-01-30T15:04:21;5.80;61.80
68485;DHT22;55472;50.060;21.960;2024-01-30T15:06:49;5.80;61.80
68485;DHT22;55472;50.060;21.960;2024-01-30T15:09:15;5.60;62.30
68485;DHT22;55472;50.060;21.960;2024-01-30T15:11:44;5.40;62.80
68485;DHT22;55472;50.060;21.960;2024-01-30T15:14:11;5.20;63.50
68485;DHT22;55472;50.060;21.960;2024-01-30T15:16:37;5.10;63.90
68485;DHT22;55472;50.060;21.960;2024-01-30T15:19:03;5.00;64.30
68485;DHT22;55472;50.060;21.960;2024-01-30T15:21:33;4.90;64.70
68485;DHT22;55472;50.060;21.960;2024-01-30T15:23:59;4.70;65.00
68485;DHT22;55472;50.060;21.960;2024-01-30T15:26:27;4.60;65.70
68485;DHT22;55472;50.060;21.960;2024-01-30T15:28:53;4.40;65.80